sensor_id;sensor_type;location;lat;lon;timestamp;temperature;humidity
21001;DHT22;10658;50.920;12.238;2023-04-01T00:01:05;9.30;99.90
21001;DHT22;10658;50.920;12.238;2023-04-01T00:05:06;9.30;99.90
21001;DHT22;10658;50.920;12.238;2023-04-01T00:09:07;9.30;99.90
21001;DHT22;10658;50.920;12.238;2023-04-01T00:13:11;9.20;99.90
21001;DHT22;10658;50.920;12.238;2023-04-01T00:17:12;9.20;99.90
21001;DHT22;10658;50.920;12.238;2023-04-01T00:21:13;9.20;99.90
21001;DHT22;10658;50.920;12.238;2023-04-01T00:25:14;9.20;99.90
21001;DHT22;10658;50.920;12.238;2023-04-01T00:29:15;9.20;99.90
21001;DHT22;10658;50.920;12.238;2023-04-01T00:33:16;9.20;99.90
21001;DHT22;10658;50.920;12.238;2023-04-01T00:37:18;9.20;99.90
21001;DHT22;10658;50.920;12.238;2023-04-01T00:41:19;9.30;99.90
21001;DHT22;10658;50.920;12.238;2023-04-01T00:45:34;9.30;99.90
21001;DHT22;10658;50.920;12.238;2023-04-01T00:49:39;9.20;99.90
21001;DHT22;10658;50.920;12.238;2023-04-01T00:53:44;9.20;99.90
21001;DHT22;10658;50.920;12.238;2023-04-01T00:57:46;9.20;99.90
21001;DHT22;10658;50.920;12.238;2023-04-01T01:01:48;9.20;99.90
21001;DHT22;10658;50.920;12.238;2023-04-01T01:10:18;9.20;99.90
21001;DHT22;10658;50.920;12.238;2023-04-01T01:23:05;9.10;99.90
21001;DHT22;10658;50.920;12.238;2023-04-01T01:27:11;9.10;99.90
21001;DHT22;10658;50.920;12.238;2023-04-01T01:39:26;9.10;99.90
21001;DHT22;10658;50.920;12.238;2023-04-01T01:43:36;9.10;99.90
21001;DHT22;10658;50.920;12.238;2023-04-01T01:47:40;9.00;99.90
21001;DHT22;10658;50.920;12.238;2023-04-01T01:51:42;9.00;99.90
21001;DHT22;10658;50.920;12.238;2023-04-01T01:55:47;9.00;99.90
21001;DHT22;10658;50.920;12.238;2023-04-01T01:59:49;9.00;99.90
21001;DHT22;10658;50.920;12.238;2023-04-01T02:03:58;9.00;99.90
21001;DHT22;10658;50.920;12.238;2023-04-01T02:08:12;8.90;99.90
21001;DHT22;10658;50.920;12.238;2023-04-01T02:12:15;8.90;99.90
21001;DHT22;10658;50.920;12.238;2023-04-01T02:16:22;9.00;99.90
21001;DHT22;10658;50.920;12.238;2023-04-01T02:20:25;8.90;99.90
21001;DHT22;10658;50.920;12.238;2023-04-01T02:24:28;8.90;99.90
21001;DHT22;10658;50.920;12.238;2023-04-01T02:28:31;8.90;99.90
21001;DHT22;10658;50.920;12.238;2023-04-01T02:32:34;8.80;99.90
21001;DHT22;10658;50.920;12.238;2023-04-01T02:36:38;8.80;99.90
21001;DHT22;10658;50.920;12.238;2023-04-01T02:40:44;8.90;99.90
21001;DHT22;10658;50.920;12.238;2023-04-01T02:44:45;8.90;99.90
21001;DHT22;10658;50.920;12.238;2023-04-01T02:48:46;8.90;99.90
21001;DHT22;10658;50.920;12.238;2023-04-01T02:52:47;8.90;99.90
21001;DHT22;10658;50.920;12.238;2023-04-01T02:56:48;8.90;99.90
21001;DHT22;10658;50.920;12.238;2023-04-01T03:00:49;8.90;99.90
21001;DHT22;10658;50.920;12.238;2023-04-01T03:04:50;8.90;99.90
21001;DHT22;10658;50.920;12.238;2023-04-01T03:08:51;8.90;99.90
21001;DHT22;10658;50.920;12.238;2023-04-01T03:12:51;8.90;99.90
21001;DHT22;10658;50.920;12.238;2023-04-01T03:16:52;8.80;99.90
21001;DHT22;10658;50.920;12.238;2023-04-01T03:20:53;8.80;99.90
21001;DHT22;10658;50.920;12.238;2023-04-01T03:24:54;8.80;99.90
21001;DHT22;10658;50.920;12.238;2023-04-01T03:28:54;8.80;99.90
21001;DHT22;10658;50.920;12.238;2023-04-01T03:32:57;8.80;99.90
21001;DHT22;10658;50.920;12.238;2023-04-01T03:36:59;8.80;99.90
21001;DHT22;10658;50.920;12.238;2023-04-01T03:41:00;8.80;99.90
21001;DHT22;10658;50.920;12.238;2023-04-01T03:45:03;8.80;99.90
21001;DHT22;10658;50.920;12.238;2023-04-01T03:49:09;8.70;99.90
21001;DHT22;10658;50.920;12.238;2023-04-01T03:53:12;8.80;99.90
21001;DHT22;10658;50.920;12.238;2023-04-01T03:57:15;8.80;99.90
21001;DHT22;10658;50.920;12.238;2023-04-01T04:01:21;8.80;99.90
21001;DHT22;10658;50.920;12.238;2023-04-01T04:05:25;8.80;99.90
21001;DHT22;10658;50.920;12.238;2023-04-01T04:09:26;8.80;99.90
21001;DHT22;10658;50.920;12.238;2023-04-01T04:13:28;8.80;99.90
21001;DHT22;10658;50.920;12.238;2023-04-01T04:17:34;8.90;99.90
21001;DHT22;10658;50.920;12.238;2023-04-01T04:21:35;8.80;99.90
21001;DHT22;10658;50.920;12.238;2023-04-01T04:25:36;8.80;99.90
21001;DHT22;10658;50.920;12.238;2023-04-01T04:29:37;8.80;99.90
21001;DHT22;10658;50.920;12.238;2023-04-01T04:33:38;8.70;99.90
21001;DHT22;10658;50.920;12.238;2023-04-01T04:37:39;8.70;99.90
21001;DHT22;10658;50.920;12.238;2023-04-01T04:41:40;8.80;99.90
21001;DHT22;10658;50.920;12.238;2023-04-01T04:45:42;8.70;99.90
21001;DHT22;10658;50.920;12.238;2023-04-01T04:49:44;8.80;99.90
21001;DHT22;10658;50.920;12.238;2023-04-01T04:53:45;8.80;99.90
21001;DHT22;10658;50.920;12.238;2023-04-01T04:57:46;8.80;99.90
21001;DHT22;10658;50.920;12.238;2023-04-01T05:01:47;8.80;99.90
21001;DHT22;10658;50.920;12.238;2023-04-01T05:05:52;8.90;99.90
21001;DHT22;10658;50.920;12.238;2023-04-01T05:09:53;8.90;99.90
21001;DHT22;10658;50.920;12.238;2023-04-01T05:13:54;8.90;99.90
21001;DHT22;10658;50.920;12.238;2023-04-01T05:17:55;8.90;99.90
21001;DHT22;10658;50.920;12.238;2023-04-01T05:21:55;8.90;99.90
21001;DHT22;10658;50.920;12.238;2023-04-01T05:25:56;8.90;99.90
21001;DHT22;10658;50.920;12.238;2023-04-01T05:29:58;9.00;99.90
21001;DHT22;10658;50.920;12.238;2023-04-01T05:34:34;9.00;99.90
21001;DHT22;10658;50.920;12.238;2023-04-01T05:38:37;9.00;99.90
21001;DHT22;10658;50.920;12.238;2023-04-01T05:42:39;9.10;99.90
21001;DHT22;10658;50.920;12.238;2023-04-01T05:46:40;9.10;99.90
21001;DHT22;10658;50.920;12.238;2023-04-01T05:51:14;9.20;99.90
21001;DHT22;10658;50.920;12.238;2023-04-01T05:55:15;9.20;99.90
21001;DHT22;10658;50.920;12.238;2023-04-01T05:59:16;9.30;99.90
21001;DHT22;10658;50.920;12.238;2023-04-01T06:03:17;9.30;99.90
21001;DHT22;10658;50.920;12.238;2023-04-01T06:07:18;9.40;99.90
21001;DHT22;10658;50.920;12.238;2023-04-01T06:11:29;9.50;99.90
21001;DHT22;10658;50.920;12.238;2023-04-01T06:15:53;9.50;99.90
21001;DHT22;10658;50.920;12.238;2023-04-01T06:24:16;9.70;99.90
21001;DHT22;10658;50.920;12.238;2023-04-01T06:33:06;9.80;99.90
21001;DHT22;10658;50.920;12.238;2023-04-01T06:41:46;9.90;99.90
21001;DHT22;10658;50.920;12.238;2023-04-01T06:56:05;9.90;99.90
21001;DHT22;10658;50.920;12.238;2023-04-01T07:00:36;9.90;99.90
21001;DHT22;10658;50.920;12.238;2023-04-01T07:04:42;9.80;99.90
21001;DHT22;10658;50.920;12.238;2023-04-01T07:08:44;9.80;99.90
21001;DHT22;10658;50.920;12.238;2023-04-01T07:12:53;9.90;99.90
21001;DHT22;10658;50.920;12.238;2023-04-01T07:17:12;9.90;99.90
21001;DHT22;10658;50.920;12.238;2023-04-01T07:21:40;9.90;99.90
21001;DHT22;10658;50.920;12.238;2023-04-01T07:25:58;10.00;99.90
21001;DHT22;10658;50.920;12.238;2023-04-01T07:30:14;10.10;99.90
21001;DHT22;10658;50.920;12.238;2023-04-01T07:47:14;10.70;99.90
21001;DHT22;10658;50.920;12.238;2023-04-01T07:56:05;10.90;99.90
21001;DHT22;10658;50.920;12.238;2023-04-01T08:09:50;11.30;99.90
21001;DHT22;10658;50.920;12.238;2023-04-01T08:18:59;11.30;99.90
21001;DHT22;10658;50.920;12.238;2023-04-01T08:27:31;11.50;99.90
21001;DHT22;10658;50.920;12.238;2023-04-01T08:32:05;11.80;99.90
21001;DHT22;10658;50.920;12.238;2023-04-01T08:36:16;11.70;99.90
21001;DHT22;10658;50.920;12.238;2023-04-01T09:25:48;12.60;99.90
21001;DHT22;10658;50.920;12.238;2023-04-01T09:43:05;12.40;99.90
21001;DHT22;10658;50.920;12.238;2023-04-01T10:22:55;12.20;99.90
21001;DHT22;10658;50.920;12.238;2023-04-01T10:27:21;12.10;99.90
21001;DHT22;10658;50.920;12.238;2023-04-01T10:41:10;12.60;99.90
21001;DHT22;10658;50.920;12.238;2023-04-01T10:46:00;12.80;99.90
21001;DHT22;10658;50.920;12.238;2023-04-01T10:55:32;12.60;99.90
21001;DHT22;10658;50.920;12.238;2023-04-01T11:23:35;12.30;99.90
21001;DHT22;10658;50.920;12.238;2023-04-01T11:40:37;12.90;99.90
21001;DHT22;10658;50.920;12.238;2023-04-01T12:03:09;11.70;99.90
21001;DHT22;10658;50.920;12.238;2023-04-01T12:25:03;11.20;99.90
21001;DHT22;10658;50.920;12.238;2023-04-01T12:51:26;11.70;99.90
21001;DHT22;10658;50.920;12.238;2023-04-01T12:55:44;12.10;99.90
21001;DHT22;10658;50.920;12.238;2023-04-01T13:00:03;12.20;99.90
21001;DHT22;10658;50.920;12.238;2023-04-01T13:04:44;12.40;99.90
21001;DHT22;10658;50.920;12.238;2023-04-01T13:09:10;12.50;99.90
21001;DHT22;10658;50.920;12.238;2023-04-01T13:22:41;12.50;99.90
21001;DHT22;10658;50.920;12.238;2023-04-01T13:26:57;12.80;99.90
21001;DHT22;10658;50.920;12.238;2023-04-01T13:36:03;13.10;99.90
21001;DHT22;10658;50.920;12.238;2023-04-01T13:44:53;12.60;99.90
21001;DHT22;10658;50.920;12.238;2023-04-01T13:49:13;12.30;99.90
21001;DHT22;10658;50.920;12.238;2023-04-01T14:11:02;11.50;99.90
21001;DHT22;10658;50.920;12.238;2023-04-01T14:15:11;11.60;99.90
21001;DHT22;10658;50.920;12.238;2023-04-01T14:28:23;12.00;99.90
21001;DHT22;10658;50.920;12.238;2023-04-01T14:38:00;12.30;99.90
21001;DHT22;10658;50.920;12.238;2023-04-01T14:50:31;12.70;99.90
21001;DHT22;10658;50.920;12.238;2023-04-01T14:54:44;12.30;99.90
21001;DHT22;10658;50.920;12.238;2023-04-01T14:58:47;12.00;99.90
21001;DHT22;10658;50.920;12.238;2023-04-01T15:25:16;12.00;99.90
21001;DHT22;10658;50.920;12.238;2023-04-01T15:28:49;12.00;99.90
21001;DHT22;10658;50.920;12.238;2023-04-01T15:33:11;12.10;99.90
21001;DHT22;10658;50.920;12.238;2023-04-01T15:41:24;12.10;99.90
21001;DHT22;10658;50.920;12.238;2023-04-01T15:45:32;12.00;99.90
21001;DHT22;10658;50.920;12.238;2023-04-01T15:49:44;12.00;99.90
21001;DHT22;10658;50.920;12.238;2023-04-01T15:54:12;11.90;99.90
21001;DHT22;10658;50.920;12.238;2023-04-01T16:02:51;11.60;99.90
21001;DHT22;10658;50.920;12.238;2023-04-01T16:07:11;11.50;99.90
21001;DHT22;10658;50.920;12.238;2023-04-01T16:17:03;11.40;99.90
21001;DHT22;10658;50.920;12.238;2023-04-01T16:26:01;11.10;99.90
21001;DHT22;10658;50.920;12.238;2023-04-01T16:29:49;11.10;99.90
21001;DHT22;10658;50.920;12.238;2023-04-01T16:42:43;11.00;99.90
21001;DHT22;10658;50.920;12.238;2023-04-01T16:51:00;10.90;99.90
21001;DHT22;10658;50.920;12.238;2023-04-01T16:55:15;10.90;99.90
21001;DHT22;10658;50.920;12.238;2023-04-01T16:59:29;10.90;99.90
21001;DHT22;10658;50.920;12.238;2023-04-01T17:03:39;10.90;99.90
21001;DHT22;10658;50.920;12.238;2023-04-01T17:08:26;10.90;99.90
21001;DHT22;10658;50.920;12.238;2023-04-01T17:21:29;10.80;99.90
21001;DHT22;10658;50.920;12.238;2023-04-01T18:04:25;10.50;99.90
21001;DHT22;10658;50.920;12.238;2023-04-01T18:08:46;10.50;99.90
21001;DHT22;10658;50.920;12.238;2023-04-01T18:25:44;10.20;99.90
21001;DHT22;10658;50.920;12.238;2023-04-01T18:29:54;10.20;99.90
21001;DHT22;10658;50.920;12.238;2023-04-01T18:46:50;10.10;99.90
21001;DHT22;10658;50.920;12.238;2023-04-01T18:50:57;10.10;99.90
21001;DHT22;10658;50.920;12.238;2023-04-01T18:59:14;10.10;99.90
21001;DHT22;10658;50.920;12.238;2023-04-01T19:03:23;10.10;99.90
21001;DHT22;10658;50.920;12.238;2023-04-01T19:11:54;10.00;99.90
21001;DHT22;10658;50.920;12.238;2023-04-01T19:16:12;10.00;99.90
21001;DHT22;10658;50.920;12.238;2023-04-01T19:29:03;10.00;99.90
21001;DHT22;10658;50.920;12.238;2023-04-01T19:37:51;10.00;99.90
21001;DHT22;10658;50.920;12.238;2023-04-01T19:46:43;10.00;99.90
21001;DHT22;10658;50.920;12.238;2023-04-01T19:50:50;10.00;99.90
21001;DHT22;10658;50.920;12.238;2023-04-01T19:59:36;9.90;99.90
21001;DHT22;10658;50.920;12.238;2023-04-01T20:07:53;9.80;99.90
21001;DHT22;10658;50.920;12.238;2023-04-01T20:12:00;9.80;99.90
21001;DHT22;10658;50.920;12.238;2023-04-01T20:16:05;9.80;99.90
21001;DHT22;10658;50.920;12.238;2023-04-01T20:41:06;9.90;99.90
21001;DHT22;10658;50.920;12.238;2023-04-01T20:45:30;9.80;99.90
21001;DHT22;10658;50.920;12.238;2023-04-01T20:54:51;9.70;99.90
21001;DHT22;10658;50.920;12.238;2023-04-01T21:07:52;9.60;99.90
21001;DHT22;10658;50.920;12.238;2023-04-01T21:29:03;9.40;99.90
21001;DHT22;10658;50.920;12.238;2023-04-01T21:33:33;9.30;99.90
21001;DHT22;10658;50.920;12.238;2023-04-01T21:47:30;9.50;99.90
21001;DHT22;10658;50.920;12.238;2023-04-01T21:56:22;9.40;99.90
21001;DHT22;10658;50.920;12.238;2023-04-01T22:00:38;9.30;99.90
21001;DHT22;10658;50.920;12.238;2023-04-01T22:09:31;9.40;99.90
21001;DHT22;10658;50.920;12.238;2023-04-01T22:13:38;9.40;99.90
21001;DHT22;10658;50.920;12.238;2023-04-01T22:17:59;9.40;99.90
21001;DHT22;10658;50.920;12.238;2023-04-01T22:22:22;9.40;99.90
21001;DHT22;10658;50.920;12.238;2023-04-01T22:26:44;9.20;99.90
21001;DHT22;10658;50.920;12.238;2023-04-01T22:31:02;9.10;99.90
21001;DHT22;10658;50.920;12.238;2023-04-01T22:58:09;8.30;99.90
21001;DHT22;10658;50.920;12.238;2023-04-01T23:02:30;8.30;99.90
21001;DHT22;10658;50.920;12.238;2023-04-01T23:06:38;8.20;99.90
21001;DHT22;10658;50.920;12.238;2023-04-01T23:10:49;8.10;99.90
21001;DHT22;10658;50.920;12.238;2023-04-01T23:14:55;8.10;99.90
21001;DHT22;10658;50.920;12.238;2023-04-01T23:32:23;7.90;99.90
21001;DHT22;10658;50.920;12.238;2023-04-01T23:36:30;7.80;99.90
21001;DHT22;10658;50.920;12.238;2023-04-01T23:40:31;7.70;99.90
21001;DHT22;10658;50.920;12.238;2023-04-01T23:44:34;7.70;99.90
21001;DHT22;10658;50.920;12.238;2023-04-01T23:48:41;7.50;99.90
21001;DHT22;10658;50.920;12.238;2023-04-01T23:52:49;7.40;99.90
21001;DHT22;10658;50.920;12.238;2023-04-01T23:56:54;7.20;99.90
